ADDS METAR Data INFO
IDs: Format: Raw Decoded Include TAF

Data at: 1951 UTC 14 Aug 2018

KAQW 141852Z AUTO VRB05KT 10SM FEW046 FEW120 25/18 A2984 RMK AO2 SLP100 T02500183
KAQW 141827Z AUTO 09007KT 10SM FEW110 26/19 A2985 RMK AO2 LTG DSNT E T02560189
KAQW 141812Z AUTO VRB06KT 10SM VCTS SCT110 24/19 A2985 RMK AO2 LTG DSNT E T02440194
KAQW 141752Z AUTO 06008KT 10SM FEW036 BKN100 23/19 A2985 RMK AO2 LTG DSNT SE RAB03E40 TSB00E35 SLP107 P0000 60000 T02280189 10267 20211 56012
KAQW 141741Z AUTO 05007KT 10SM VCTS FEW038 SCT075 BKN100 22/19 A2986 RMK AO2 LTG DSNT SE RAB03E40 TSB00E35 P0000 T02220194
KAQW 141706Z AUTO 18003KT 10SM -TSRA FEW035 BKN043 BKN055 26/19 A2986 RMK AO2 RAB03 TSB00 P0000 T02610189
KAQW 141652Z AUTO 12006KT 10SM BKN039 BKN047 26/19 A2986 RMK AO2 SLP107 T02610189
KAQW 141552Z AUTO 10003KT 10SM SCT036 BKN046 25/19 A2987 RMK AO2 SLP112 T02500194
KAQW 141452Z AUTO 13003KT 10SM SCT032 OVC043 24/19 A2989 RMK AO2 SLP118 T02440189 58005
KAQW 141352Z AUTO 08005KT 10SM 23/19 A2990 RMK AO2 SLP123 T02330194 $
KAQW 141304Z AUTO 10006KT 10SM 23/19 A2990 RMK AO2 T02280194 $
KAQW 141252Z AUTO 10006KT 10SM FEW022 BKN027 OVC036 23/19 A2990 RMK AO2 SLP122 T02280189
KAQW 141228Z AUTO 09005KT 10SM SCT027 BKN035 22/19 A2990 RMK AO2 T02170194
KAQW 141152Z AUTO 10004KT 10SM BKN027 BKN033 21/19 A2991 RMK AO2 SLP125 60001 70017 T02110194 10211 20200 50011
KAQW 141150Z AUTO 10005KT 10SM BKN027 BKN033 21/19 A2991 RMK AO2
KAQW 141120Z AUTO 11005KT 10SM SCT025 21/19 A2990 RMK AO2 T02060194
KAQW 141052Z AUTO 10006KT 10SM BKN025 BKN032 21/19 A2989 RMK AO2 SLP121 T02060194
KAQW 141012Z AUTO 09006KT 10SM BKN026 BKN030 OVC035 21/19 A2989 RMK AO2 T02060194
KAQW 140952Z AUTO 09006KT 10SM SCT025 OVC033 21/19 A2987 RMK AO2 SLP113 T02060194
KAQW 140941Z AUTO 09006KT 10SM FEW018 SCT025 OVC035 21/19 A2987 RMK AO2 T02060194
KAQW 140852Z AUTO 10003KT 10SM OVC018 21/19 A2988 RMK AO2 SLP116 60001 T02060194 58007
KAQW 140826Z AUTO 10007KT 9SM BKN022 OVC041 21/19 A2988 RMK AO2 T02060194
KAQW 140802Z AUTO 11008KT 10SM SCT023 OVC042 20/19 A2988 RMK AO2 T02000194
KAQW 140752Z AUTO 12006KT 10SM BKN024 BKN037 OVC047 21/19 A2989 RMK AO2 RAB21E42 SLP119 P0001 T02060194
KAQW 140652Z AUTO 07004KT 10SM BKN018 BKN025 OVC050 21/19 A2990 RMK AO2 RAE33 SLP123 P0000 T02060194
KAQW 140632Z AUTO 09004KT 10SM -RA FEW017 BKN039 OVC049 21/19 A2990 RMK AO2 P0000 T02060194
KAQW 140552Z AUTO 00000KT 9SM -RA SCT019 BKN028 OVC065 21/19 A2991 RMK AO2 RAB0456 SLP126 P0002 60010 T02060194 10211 20200 58008
KAQW 140452Z AUTO 12005KT 10SM OVC019 21/19 A2993 RMK AO2 RAE11 SLP131 P0000 T02060194 402280194
KAQW 140352Z AUTO 00000KT 7SM -RA FEW015 BKN022 OVC034 21/19 A2993 RMK AO2 RAE25B49 SLP134 P0000 T02060194
KAQW 140252Z AUTO 00000KT 5SM -RA BR BKN021 OVC035 21/19 A2993 RMK AO2 RAB46 SLP134 P0001 60008 T02060194 58007
KAQW 140152Z AUTO 00000KT 8SM OVC022 20/19 A2995 RMK AO2 RAB14E29 SLP140 P0000 T02000194
KAQW 140052Z AUTO 00000KT 6SM BR OVC024 21/19 A2996 RMK AO2 RAB2355E38 SLP143 P0007 T02060194
KAQW 140032Z AUTO 13004KT 6SM -RA BR BKN021 OVC027 21/19 A2996 RMK AO2 RAB2355 P0007 T02060194
KAQW 132352Z AUTO 00000KT 10SM FEW023 BKN038 OVC048 21/19 A2995 RMK AO2 RAE01 SLP141 P0000 60006 T02110194 10228 20211 56007
KAQW 132349Z AUTO 09003KT 10SM FEW023 BKN038 OVC046 21/19 A2995 RMK AO2 RAE01 P0000
KAQW 132252Z AUTO 00000KT 10SM -RA BKN021 BKN032 OVC039 21/19 A2996 RMK AO2 SLP144 P0002 T02110194
KAQW 132152Z AUTO 00000KT 9SM -RA OVC021 21/19 A2998 RMK AO2 SLP148 P0002 T02110194
KAQW 132052Z AUTO 11004KT 10SM -RA SCT021 BKN026 OVC048 22/19 A2999 RMK AO2 SLP154 P0002 60002 T02220194 58017
KAQW 131952Z AUTO 11005KT 10SM -RA OVC021 22/19 A3001 RMK AO2 RAB14 SLP161 P0000 T02220194
KAQW 131852Z AUTO 11005KT 10SM OVC020 23/19 A3002 RMK AO2 SLP165 T02280189
KAQW 131752Z AUTO 10007KT 10SM OVC022 23/19 A3004 RMK AO2 SLP171 T02280189 10228 20200 58015
KAQW 131652Z AUTO 10004KT 10SM OVC020 23/19 A3006 RMK AO2 SLP176 T02280189
KAQW 131552Z AUTO 10005KT 10SM OVC020 22/19 A3007 RMK AO2 SLP182 T02220189
KAQW 131452Z AUTO 09005KT 10SM OVC019 22/18 A3009 RMK AO2 SLP185 T02220183 58004
KAQW 131352Z AUTO 11007KT 10SM OVC019 22/19 A3009 RMK AO2 SLP188 T02220189
KAQW 131252Z AUTO 00000KT 10SM OVC019 21/19 A3010 RMK AO2 SLP190 T02110189
KAQW 131152Z AUTO 00000KT 10SM OVC019 21/18 A3010 RMK AO2 SLP190 T02060183 10206 20194 51002
KAQW 131052Z AUTO 00000KT 10SM OVC020 20/18 A3010 RMK AO2 SLP190 T02000183
KAQW 130952Z AUTO 00000KT 10SM OVC019 20/18 A3010 RMK AO2 SLP189 T02000183 $
KAQW 130852Z AUTO 00000KT 10SM OVC019 20/18 A3009 RMK AO2 SLP187 T02000183 58008 $
KAQW 130752Z AUTO 00000KT 10SM OVC019 20/18 A3010 RMK AO2 SLP191 T02000183 $